createdAt,value
2023-01-08T00:01:31.819Z,83.32
2023-01-08T00:04:00.598Z,83.94
2023-01-08T00:06:28.665Z,84.05
2023-01-08T00:08:59.459Z,83.54
2023-01-08T00:11:26.785Z,83.33
2023-01-08T00:13:53.866Z,83.33
2023-01-08T00:16:21.097Z,83.20
2023-01-08T00:18:48.433Z,83.29
2023-01-08T00:21:15.628Z,83.42
2023-01-08T00:23:42.611Z,83.47
2023-01-08T00:26:10.985Z,83.31
2023-01-08T00:28:39.152Z,83.65
2023-01-08T00:31:11.554Z,83.72
2023-01-08T00:33:39.991Z,83.48
2023-01-08T00:36:09.400Z,83.71
2023-01-08T00:38:37.279Z,83.57
2023-01-08T00:41:04.971Z,83.75
2023-01-08T00:43:32.197Z,83.41
2023-01-08T00:45:59.580Z,83.32
2023-01-08T00:48:27.187Z,83.14
2023-01-08T00:50:54.717Z,83.21
2023-01-08T00:53:22.867Z,83.26
2023-01-08T00:55:50.021Z,83.27
2023-01-08T00:58:17.093Z,83.13
2023-01-08T01:00:44.500Z,82.79
2023-01-08T01:03:11.722Z,82.69
2023-01-08T01:05:38.932Z,82.32
2023-01-08T01:08:05.988Z,82.61
2023-01-08T01:10:33.251Z,82.75
2023-01-08T01:13:00.378Z,82.50
2023-01-08T01:15:27.471Z,82.74
2023-01-08T01:17:54.579Z,83.00
2023-01-08T01:20:23.933Z,82.50
2023-01-08T01:22:51.424Z,82.23
2023-01-08T01:25:18.651Z,82.50
2023-01-08T01:27:46.294Z,82.08
2023-01-08T01:30:13.934Z,82.06
2023-01-08T01:32:41.251Z,82.08
2023-01-08T01:35:08.890Z,82.18
2023-01-08T01:37:36.093Z,81.94
2023-01-08T01:40:03.479Z,82.20
2023-01-08T01:42:44.004Z,82.53
2023-01-08T01:45:18.542Z,82.11
2023-01-08T01:47:54.852Z,82.14
2023-01-08T01:50:46.590Z,82.24
2023-01-08T01:53:23.753Z,81.83
2023-01-08T01:55:51.161Z,81.96
2023-01-08T01:58:26.934Z,82.64
2023-01-08T02:00:57.029Z,82.10
2023-01-08T02:03:26.793Z,82.70
2023-01-08T02:05:54.055Z,82.82
2023-01-08T02:08:47.069Z,81.99
2023-01-08T02:11:27.677Z,82.27
2023-01-08T02:14:21.943Z,82.26
2023-01-08T02:17:07.164Z,82.54
2023-01-08T02:19:37.294Z,82.31
2023-01-08T02:22:36.617Z,82.67
2023-01-08T02:25:11.269Z,82.44
2023-01-08T02:27:43.210Z,82.43
2023-01-08T02:30:10.930Z,82.32
2023-01-08T02:32:40.611Z,82.35
2023-01-08T02:35:09.677Z,82.66
2023-01-08T02:37:38.129Z,82.76
2023-01-08T02:40:22.247Z,82.79
2023-01-08T02:43:28.117Z,82.90
2023-01-08T02:46:01.917Z,82.89
2023-01-08T02:48:42.688Z,83.20
2023-01-08T02:51:18.752Z,83.34
2023-01-08T02:53:49.123Z,83.71
2023-01-08T02:56:24.843Z,83.83
2023-01-08T02:58:54.263Z,83.48
2023-01-08T03:01:24.329Z,83.62
2023-01-08T03:03:56.647Z,83.63
2023-01-08T03:06:25.684Z,83.55
2023-01-08T03:08:54.111Z,83.48
2023-01-08T03:11:23.645Z,83.84
2023-01-08T03:14:08.602Z,84.13
2023-01-08T03:16:39.005Z,83.49
2023-01-08T03:19:13.398Z,83.95
2023-01-08T03:21:44.927Z,83.97
2023-01-08T03:24:15.278Z,84.28
2023-01-08T03:26:44.424Z,84.19
2023-01-08T03:29:15.220Z,83.55
2023-01-08T03:31:45.291Z,84.11
2023-01-08T03:34:15.359Z,83.75
2023-01-08T03:36:47.826Z,83.44
2023-01-08T03:39:24.183Z,82.41
2023-01-08T03:41:56.607Z,82.62
2023-01-08T03:44:23.588Z,82.63
2023-01-08T03:46:54.820Z,82.62
2023-01-08T03:49:25.069Z,82.47
2023-01-08T03:51:52.402Z,82.69
2023-01-08T03:54:23.812Z,82.50
2023-01-08T03:56:51.281Z,82.54
2023-01-08T03:59:18.700Z,82.47
2023-01-08T04:01:46.032Z,82.75
2023-01-08T04:04:13.452Z,82.65
2023-01-08T04:06:40.725Z,82.64
2023-01-08T04:09:07.715Z,82.54
2023-01-08T04:11:35.093Z,83.38
2023-01-08T04:14:02.476Z,83.56
2023-01-08T04:16:29.830Z,83.44
2023-01-08T04:18:56.948Z,83.85
2023-01-08T04:21:23.972Z,83.50
2023-01-08T04:23:50.987Z,84.23
2023-01-08T04:26:18.117Z,83.79
2023-01-08T04:28:45.188Z,84.81
2023-01-08T04:31:12.528Z,84.59
2023-01-08T04:33:39.746Z,84.63
2023-01-08T04:36:07.259Z,84.82
2023-01-08T04:38:34.602Z,85.08
2023-01-08T04:41:03.273Z,85.34
2023-01-08T04:43:31.071Z,85.11
2023-01-08T04:46:00.231Z,85.24
2023-01-08T04:48:28.343Z,85.23
2023-01-08T04:50:57.930Z,85.25
2023-01-08T04:53:25.231Z,85.38
2023-01-08T04:55:52.563Z,85.44
2023-01-08T04:58:20.003Z,85.21
2023-01-08T05:00:47.451Z,84.89
2023-01-08T05:03:15.087Z,85.47
2023-01-08T05:05:42.468Z,85.87
2023-01-08T05:08:09.748Z,85.48
2023-01-08T05:10:36.823Z,85.65
2023-01-08T05:13:04.009Z,85.17
2023-01-08T05:15:31.210Z,85.18
2023-01-08T05:18:01.809Z,85.15
2023-01-08T05:20:29.442Z,85.71
2023-01-08T05:22:56.559Z,85.63
2023-01-08T05:25:23.704Z,85.22
2023-01-08T05:27:51.312Z,85.78
2023-01-08T05:30:18.552Z,85.94
2023-01-08T05:32:45.817Z,85.46
2023-01-08T05:35:13.031Z,85.80
2023-01-08T05:37:40.562Z,85.67
2023-01-08T05:40:08.401Z,85.79
2023-01-08T05:42:36.736Z,85.95
2023-01-08T05:45:05.819Z,85.88
2023-01-08T05:47:33.863Z,85.82
2023-01-08T05:50:01.821Z,85.56
2023-01-08T05:52:30.384Z,85.32
2023-01-08T05:54:57.613Z,85.89
2023-01-08T05:57:25.491Z,85.45
2023-01-08T05:59:53.033Z,85.64
2023-01-08T06:02:20.831Z,85.55
2023-01-08T06:04:51.434Z,85.66
2023-01-08T06:07:19.506Z,85.67
2023-01-08T06:09:47.815Z,85.67
2023-01-08T06:12:15.774Z,85.90
2023-01-08T06:14:43.929Z,85.34
2023-01-08T06:17:11.617Z,85.41
2023-01-08T06:19:42.531Z,85.19
2023-01-08T06:22:10.222Z,85.14
2023-01-08T06:24:37.660Z,85.26
2023-01-08T06:27:05.752Z,85.29
2023-01-08T06:29:32.939Z,85.59
2023-01-08T06:32:00.053Z,85.37
2023-01-08T06:34:27.428Z,84.83
2023-01-08T06:36:55.119Z,84.66
2023-01-08T06:39:23.433Z,84.96
2023-01-08T06:41:51.503Z,85.01
2023-01-08T06:44:19.427Z,84.23
2023-01-08T06:46:47.442Z,84.13
2023-01-08T06:49:15.584Z,83.28
2023-01-08T06:51:43.407Z,83.61
2023-01-08T06:54:13.536Z,83.43
2023-01-08T06:56:53.013Z,83.93
2023-01-08T06:59:22.749Z,83.32
2023-01-08T07:01:51.518Z,83.00
2023-01-08T07:04:20.457Z,83.04
2023-01-08T07:06:48.648Z,82.79
2023-01-08T07:09:17.627Z,82.92
2023-01-08T07:11:45.408Z,83.01
2023-01-08T07:14:12.981Z,82.44
2023-01-08T07:16:41.191Z,82.72
2023-01-08T07:19:09.376Z,82.33
2023-01-08T07:21:38.792Z,82.80
2023-01-08T07:24:07.908Z,82.16
2023-01-08T07:26:36.039Z,82.10
2023-01-08T07:29:03.653Z,82.34
2023-01-08T07:31:33.876Z,82.46
2023-01-08T07:34:01.799Z,82.61
2023-01-08T07:36:28.994Z,82.16
2023-01-08T07:38:56.964Z,82.23
2023-01-08T07:41:27.752Z,82.04
2023-01-08T07:43:59.207Z,81.85
2023-01-08T07:46:30.281Z,81.87
2023-01-08T07:48:59.382Z,81.54
2023-01-08T07:51:27.029Z,81.53
2023-01-08T07:53:57.864Z,81.42
2023-01-08T07:56:26.977Z,81.55
2023-01-08T07:58:55.709Z,81.50
2023-01-08T08:01:30.303Z,81.55
2023-01-08T08:04:02.348Z,81.54
2023-01-08T08:06:31.289Z,81.92
2023-01-08T08:09:01.236Z,82.06
2023-01-08T08:11:39.823Z,81.71
2023-01-08T08:14:09.726Z,80.87
2023-01-08T08:16:39.709Z,80.57
2023-01-08T08:19:13.116Z,80.27
2023-01-08T08:21:41.563Z,79.75
2023-01-08T08:24:09.944Z,79.64
2023-01-08T08:26:37.615Z,79.79
2023-01-08T08:29:06.483Z,79.68
2023-01-08T08:31:34.633Z,79.35
2023-01-08T08:34:03.804Z,78.80
2023-01-08T08:36:31.382Z,79.33
2023-01-08T08:38:58.827Z,79.24
2023-01-08T08:41:26.339Z,79.68
2023-01-08T08:43:53.966Z,79.32
2023-01-08T08:46:21.269Z,79.33
2023-01-08T08:48:48.885Z,78.88
2023-01-08T08:51:16.616Z,77.99
2023-01-08T08:53:44.681Z,77.51
2023-01-08T08:56:12.676Z,77.61
2023-01-08T08:58:42.358Z,77.74
2023-01-08T09:01:09.640Z,77.38
2023-01-08T09:03:37.672Z,76.76
2023-01-08T09:06:06.383Z,76.56
2023-01-08T09:08:35.194Z,76.68
2023-01-08T09:11:03.299Z,76.85
2023-01-08T09:13:30.915Z,76.66
2023-01-08T09:15:59.634Z,76.95
2023-01-08T09:18:27.113Z,76.86
2023-01-08T09:20:54.898Z,76.68
2023-01-08T09:23:22.435Z,77.14
2023-01-08T09:25:49.837Z,77.04
2023-01-08T09:28:17.960Z,76.97
2023-01-08T09:30:45.301Z,77.08
2023-01-08T09:33:13.100Z,76.96
2023-01-08T09:35:41.854Z,77.30
2023-01-08T09:38:09.387Z,77.90
2023-01-08T09:40:44.641Z,77.43
2023-01-08T09:43:20.464Z,77.42
2023-01-08T09:45:55.126Z,78.18
2023-01-08T09:48:27.790Z,78.87
2023-01-08T09:50:55.717Z,78.98
2023-01-08T09:53:24.037Z,79.20
2023-01-08T09:56:10.919Z,79.39
2023-01-08T09:58:46.574Z,79.39
2023-01-08T10:01:17.284Z,80.25
2023-01-08T10:04:08.300Z,81.55
2023-01-08T10:06:36.533Z,82.16
2023-01-08T10:09:05.464Z,82.62
2023-01-08T10:11:45.394Z,84.01
2023-01-08T10:14:22.401Z,83.81
2023-01-08T10:17:24.165Z,83.65
2023-01-08T10:19:52.101Z,82.71
2023-01-08T10:22:23.085Z,82.50
2023-01-08T10:24:51.544Z,83.74
2023-01-08T10:27:24.597Z,82.41
2023-01-08T10:29:53.625Z,82.26
2023-01-08T10:33:51.091Z,83.14
2023-01-08T10:36:25.054Z,83.61
2023-01-08T10:38:59.652Z,83.75
2023-01-08T10:41:28.800Z,83.31
2023-01-08T10:44:00.908Z,83.11
2023-01-08T10:46:43.096Z,82.39
2023-01-08T10:49:22.601Z,82.21
2023-01-08T10:51:52.347Z,82.51
2023-01-08T10:54:35.848Z,81.02
2023-01-08T10:57:17.329Z,80.69
2023-01-08T10:59:44.887Z,79.95
2023-01-08T11:02:27.814Z,79.40
2023-01-08T11:04:55.035Z,80.31
2023-01-08T11:07:24.594Z,80.25
2023-01-08T11:09:54.142Z,79.25
2023-01-08T11:12:36.784Z,78.19
2023-01-08T11:15:09.044Z,79.19
2023-01-08T11:17:36.626Z,80.42
2023-01-08T11:20:39.215Z,79.33
2023-01-08T11:23:07.145Z,81.62
2023-01-08T11:25:36.514Z,81.79
2023-01-08T11:28:06.367Z,81.44
2023-01-08T11:30:39.091Z,82.33
2023-01-08T11:33:13.521Z,82.17
2023-01-08T11:35:50.244Z,80.47
2023-01-08T11:38:17.834Z,79.07
2023-01-08T11:40:52.284Z,79.23
2023-01-08T11:43:31.799Z,78.52
2023-01-08T11:46:23.059Z,78.09
2023-01-08T11:49:17.692Z,78.41
2023-01-08T11:52:02.259Z,78.26
2023-01-08T11:54:51.666Z,78.32
2023-01-08T11:57:53.041Z,77.18
2023-01-08T12:00:20.400Z,76.54
2023-01-08T12:02:56.868Z,77.37
2023-01-08T12:05:50.226Z,77.11
2023-01-08T12:08:27.361Z,77.19
2023-01-08T12:11:19.007Z,75.79
2023-01-08T12:14:14.191Z,75.94
2023-01-08T12:16:52.021Z,76.61
2023-01-08T12:19:45.578Z,76.33
2023-01-08T12:22:44.696Z,76.66
2023-01-08T12:25:49.662Z,77.92
2023-01-08T12:28:42.967Z,77.91
2023-01-08T12:31:30.596Z,76.42
2023-01-08T12:34:11.021Z,76.99
2023-01-08T12:36:49.689Z,76.74
2023-01-08T12:39:21.435Z,76.33
2023-01-08T12:41:52.650Z,76.19
2023-01-08T12:44:26.958Z,76.08
2023-01-08T12:46:58.720Z,76.49
2023-01-08T12:49:33.425Z,76.14
2023-01-08T12:52:12.402Z,76.64
2023-01-08T12:55:05.225Z,77.21
2023-01-08T12:57:39.424Z,77.02
2023-01-08T13:00:34.327Z,77.40
2023-01-08T13:03:06.773Z,77.44
2023-01-08T13:05:37.111Z,76.99
2023-01-08T13:08:09.011Z,77.41
2023-01-08T13:10:40.273Z,77.40
2023-01-08T13:13:27.364Z,77.46
2023-01-08T13:16:07.183Z,77.32
2023-01-08T13:18:35.066Z,77.76
2023-01-08T13:21:04.657Z,77.19
2023-01-08T13:23:37.345Z,77.42
2023-01-08T13:26:06.442Z,77.27
2023-01-08T13:28:45.562Z,77.53
2023-01-08T13:31:21.940Z,77.87
2023-01-08T13:33:53.114Z,78.06
2023-01-08T13:36:24.779Z,78.37
2023-01-08T13:39:03.805Z,77.65
2023-01-08T13:41:35.538Z,77.42
2023-01-08T13:44:16.426Z,77.53
2023-01-08T13:46:44.535Z,77.75
2023-01-08T13:49:47.138Z,77.60
2023-01-08T13:52:49.085Z,77.61
2023-01-08T13:55:27.977Z,77.92
2023-01-08T13:58:02.367Z,78.17
2023-01-08T14:00:37.721Z,78.53
2023-01-08T14:03:05.555Z,78.61
2023-01-08T14:05:37.239Z,78.44
2023-01-08T14:08:04.948Z,78.02
2023-01-08T14:10:33.473Z,78.30
2023-01-08T14:13:07.912Z,78.24
2023-01-08T14:15:36.764Z,78.51
2023-01-08T14:18:06.112Z,78.45
2023-01-08T14:20:40.045Z,78.31
2023-01-08T14:23:46.073Z,78.36
2023-01-08T14:26:31.047Z,78.39
2023-01-08T14:28:58.780Z,78.47
2023-01-08T14:31:27.616Z,78.26
2023-01-08T14:33:56.613Z,78.93
2023-01-08T14:36:24.031Z,79.15
2023-01-08T14:38:51.932Z,79.09
2023-01-08T14:41:54.410Z,78.96
2023-01-08T14:44:36.240Z,79.26
2023-01-08T14:47:06.714Z,79.10
2023-01-08T14:49:41.173Z,79.10
2023-01-08T14:52:13.174Z,78.73
2023-01-08T14:54:40.771Z,79.07
2023-01-08T14:57:08.005Z,78.74
2023-01-08T14:59:40.584Z,78.91
2023-01-08T15:02:14.820Z,79.24
2023-01-08T15:04:41.946Z,79.61
2023-01-08T15:07:20.633Z,79.90
2023-01-08T15:10:02.674Z,79.47
2023-01-08T15:12:32.457Z,78.95
2023-01-08T15:15:12.642Z,78.69
2023-01-08T15:17:40.633Z,80.13
2023-01-08T15:20:18.328Z,79.41
2023-01-08T15:22:46.773Z,79.20
2023-01-08T15:25:28.617Z,78.89
2023-01-08T15:28:01.393Z,78.69
2023-01-08T15:30:45.039Z,78.11
2023-01-08T15:33:23.220Z,78.51
2023-01-08T15:35:51.576Z,78.81
2023-01-08T15:38:24.148Z,78.86
2023-01-08T15:40:53.656Z,80.17
2023-01-08T15:43:21.762Z,81.07
2023-01-08T15:45:51.434Z,81.74
2023-01-08T15:48:18.515Z,81.20
2023-01-08T15:50:45.939Z,81.73
2023-01-08T15:53:22.556Z,81.54
2023-01-08T15:55:49.914Z,81.84
2023-01-08T15:58:17.905Z,81.32
2023-01-08T16:00:46.616Z,81.38
2023-01-08T16:03:15.408Z,81.14
2023-01-08T16:05:42.457Z,81.02
2023-01-08T16:08:11.227Z,80.69
2023-01-08T16:10:38.424Z,80.36
2023-01-08T16:13:05.560Z,80.67
2023-01-08T16:15:32.791Z,80.69
2023-01-08T16:17:59.859Z,80.52
2023-01-08T16:20:27.243Z,80.63
2023-01-08T16:22:55.437Z,81.04
2023-01-08T16:25:24.374Z,81.73
2023-01-08T16:27:52.128Z,80.90
2023-01-08T16:30:19.779Z,81.83
2023-01-08T16:32:51.828Z,82.68
2023-01-08T16:35:19.809Z,82.42
2023-01-08T16:37:47.189Z,83.22
2023-01-08T16:40:15.821Z,84.05
2023-01-08T16:42:43.055Z,84.73
2023-01-08T16:45:10.765Z,84.98
2023-01-08T16:47:39.795Z,85.29
2023-01-08T16:50:08.632Z,85.74
2023-01-08T16:52:37.765Z,85.56
2023-01-08T16:55:06.444Z,85.38
2023-01-08T16:57:33.533Z,85.55
2023-01-08T17:00:00.965Z,86.11
2023-01-08T17:02:29.091Z,86.15
2023-01-08T17:04:56.297Z,86.69
2023-01-08T17:07:23.694Z,86.02
2023-01-08T17:09:51.536Z,87.13
2023-01-08T17:12:22.702Z,87.42
2023-01-08T17:14:51.218Z,87.44
2023-01-08T17:17:18.544Z,87.37
2023-01-08T17:19:45.839Z,86.66
2023-01-08T17:22:12.812Z,87.19
2023-01-08T17:24:40.315Z,87.84
2023-01-08T17:27:07.711Z,87.92
2023-01-08T17:29:35.188Z,87.91
2023-01-08T17:32:02.453Z,87.42
2023-01-08T17:34:29.872Z,87.96
2023-01-08T17:36:57.263Z,88.33
2023-01-08T17:39:24.654Z,88.33
2023-01-08T17:42:10.477Z,87.86
2023-01-08T17:44:37.872Z,88.33
2023-01-08T17:47:05.217Z,87.84
2023-01-08T17:49:32.588Z,87.84
2023-01-08T17:51:59.800Z,88.16
2023-01-08T17:54:26.769Z,87.82
2023-01-08T17:56:53.939Z,87.72
2023-01-08T17:59:21.165Z,88.12
2023-01-08T18:01:49.344Z,88.42
2023-01-08T18:04:16.638Z,88.43
2023-01-08T18:06:44.608Z,88.05
2023-01-08T18:09:12.702Z,88.47
2023-01-08T18:11:41.526Z,88.54
2023-01-08T18:14:11.742Z,88.15
2023-01-08T18:16:39.677Z,88.10
2023-01-08T18:19:06.951Z,88.34
2023-01-08T18:21:34.705Z,88.30
2023-01-08T18:24:01.800Z,88.76
2023-01-08T18:26:29.619Z,88.59
2023-01-08T18:28:57.078Z,89.06
2023-01-08T18:31:24.503Z,88.49
2023-01-08T18:33:52.252Z,88.62
2023-01-08T18:36:27.025Z,88.20
2023-01-08T18:39:00.379Z,87.88
2023-01-08T18:41:46.286Z,87.36
2023-01-08T18:44:13.916Z,86.09
2023-01-08T18:46:41.303Z,86.12
2023-01-08T18:49:08.354Z,85.35
2023-01-08T18:51:35.668Z,84.32
2023-01-08T18:54:04.734Z,84.16
2023-01-08T18:56:34.957Z,83.42
2023-01-08T18:59:04.360Z,82.83
2023-01-08T19:01:33.156Z,82.18
2023-01-08T19:04:00.569Z,82.23
2023-01-08T19:06:28.265Z,81.62
2023-01-08T19:08:57.876Z,81.07
2023-01-08T19:11:25.730Z,80.70
2023-01-08T19:13:59.558Z,80.85
2023-01-08T19:16:26.799Z,80.32
2023-01-08T19:18:54.552Z,80.53
2023-01-08T19:21:22.785Z,80.20
2023-01-08T19:23:50.446Z,80.09
2023-01-08T19:26:18.624Z,79.96
2023-01-08T19:28:46.086Z,79.76
2023-01-08T19:31:16.261Z,79.61
2023-01-08T19:33:46.736Z,79.81
2023-01-08T19:36:17.045Z,79.54
2023-01-08T19:38:44.765Z,79.64
2023-01-08T19:41:31.311Z,79.46
2023-01-08T19:43:58.829Z,79.68
2023-01-08T19:46:26.359Z,79.50
2023-01-08T19:48:57.632Z,79.52
2023-01-08T19:51:25.498Z,79.77
2023-01-08T19:53:54.225Z,79.72
2023-01-08T19:56:21.803Z,79.49
2023-01-08T19:58:49.755Z,79.37
2023-01-08T20:01:20.894Z,79.91
2023-01-08T20:03:49.386Z,79.87
2023-01-08T20:06:20.750Z,79.99
2023-01-08T20:08:49.065Z,80.42
2023-01-08T20:11:18.152Z,79.82
2023-01-08T20:13:45.568Z,79.76
2023-01-08T20:16:15.711Z,79.83
2023-01-08T20:18:44.107Z,80.01
2023-01-08T20:21:17.861Z,79.78
2023-01-08T20:23:45.515Z,80.02
2023-01-08T20:26:18.335Z,79.80
2023-01-08T20:28:46.722Z,79.81
2023-01-08T20:31:16.413Z,79.30
2023-01-08T20:33:45.228Z,79.90
2023-01-08T20:36:22.406Z,79.63
2023-01-08T20:38:54.667Z,79.35
2023-01-08T20:41:23.025Z,79.54
2023-01-08T20:43:50.939Z,79.40
2023-01-08T20:46:18.405Z,78.95
2023-01-08T20:48:48.644Z,78.75
2023-01-08T20:51:16.446Z,79.31
2023-01-08T20:53:43.795Z,78.84
2023-01-08T20:56:13.556Z,78.94
2023-01-08T20:58:43.963Z,78.89
2023-01-08T21:01:16.115Z,78.69
2023-01-08T21:03:44.709Z,77.92
2023-01-08T21:06:14.716Z,78.11
2023-01-08T21:08:43.801Z,78.07
2023-01-08T21:11:12.787Z,77.52
2023-01-08T21:13:41.572Z,77.67
2023-01-08T21:16:13.714Z,77.59
2023-01-08T21:18:44.192Z,77.08
2023-01-08T21:21:12.355Z,77.34
2023-01-08T21:23:39.707Z,77.21
2023-01-08T21:26:10.204Z,77.63
2023-01-08T21:28:39.463Z,76.38
2023-01-08T21:31:10.343Z,76.53
2023-01-08T21:33:41.061Z,76.37
2023-01-08T21:36:17.335Z,75.92
2023-01-08T21:38:44.828Z,75.38
2023-01-08T21:41:33.844Z,75.81
2023-01-08T21:44:20.070Z,75.57
2023-01-08T21:46:48.043Z,75.30
2023-01-08T21:49:18.684Z,75.20
2023-01-08T21:52:04.431Z,74.81
2023-01-08T21:54:31.775Z,74.84
2023-01-08T21:56:59.021Z,74.78
2023-01-08T21:59:26.235Z,74.15
2023-01-08T22:01:53.554Z,74.74
2023-01-08T22:04:20.875Z,73.81
2023-01-08T22:06:48.084Z,73.98
2023-01-08T22:09:15.173Z,73.58
2023-01-08T22:11:42.412Z,73.45
2023-01-08T22:14:09.629Z,73.33
2023-01-08T22:16:37.208Z,73.10
2023-01-08T22:19:04.634Z,72.88
2023-01-08T22:21:31.801Z,73.39
2023-01-08T22:23:59.072Z,73.35
2023-01-08T22:26:26.532Z,73.46
2023-01-08T22:28:54.017Z,73.75
2023-01-08T22:31:21.170Z,73.47
2023-01-08T22:33:48.474Z,73.61
2023-01-08T22:36:15.941Z,73.53
2023-01-08T22:38:43.284Z,73.38
2023-01-08T22:41:17.134Z,73.66
2023-01-08T22:43:44.661Z,73.08
2023-01-08T22:46:16.706Z,73.09
2023-01-08T22:48:44.446Z,74.11
2023-01-08T22:51:11.925Z,74.16
2023-01-08T22:53:39.388Z,74.05
2023-01-08T22:56:12.429Z,74.36
2023-01-08T22:58:41.526Z,73.95
2023-01-08T23:01:14.227Z,74.24
2023-01-08T23:03:43.430Z,74.18
2023-01-08T23:06:15.608Z,74.24
2023-01-08T23:08:44.206Z,74.59
2023-01-08T23:11:14.483Z,74.68
2023-01-08T23:13:42.384Z,74.86
2023-01-08T23:16:12.435Z,75.09
2023-01-08T23:18:40.297Z,75.15
2023-01-08T23:21:10.150Z,75.65
2023-01-08T23:23:37.711Z,75.50
2023-01-08T23:26:08.146Z,75.45
2023-01-08T23:28:35.762Z,75.40
2023-01-08T23:31:07.943Z,75.04
2023-01-08T23:33:35.551Z,74.83
2023-01-08T23:36:06.419Z,74.86
2023-01-08T23:38:48.107Z,75.81
2023-01-08T23:41:16.264Z,75.59
2023-01-08T23:43:44.014Z,75.99
2023-01-08T23:46:11.384Z,75.59
2023-01-08T23:48:38.722Z,75.09
2023-01-08T23:51:06.181Z,76.06
2023-01-08T23:53:33.617Z,76.18
2023-01-08T23:56:00.970Z,76.31
2023-01-08T23:58:28.383Z,76.36
